createdAt,value
2022-10-01T00:01:46.512Z,4.13
2022-10-01T00:06:03.731Z,5.90
2022-10-01T00:10:16.100Z,6.10
2022-10-01T00:14:27.967Z,5.73
2022-10-01T00:18:42.203Z,5.00
2022-10-01T00:22:53.829Z,5.23
2022-10-01T00:27:05.363Z,5.60
2022-10-01T00:31:16.913Z,5.87
2022-10-01T00:35:28.644Z,4.77
2022-10-01T00:39:40.111Z,5.23
2022-10-01T00:44:18.248Z,4.57
2022-10-01T00:48:34.785Z,7.40
2022-10-01T00:52:52.270Z,5.10
2022-10-01T00:57:07.179Z,6.40
2022-10-01T01:01:19.044Z,7.10
2022-10-01T01:05:30.890Z,5.83
2022-10-01T01:09:46.249Z,6.63
2022-10-01T01:14:16.389Z,7.93
2022-10-01T01:18:53.008Z,5.93
2022-10-01T01:23:25.327Z,5.53
2022-10-01T01:27:42.073Z,5.80
2022-10-01T01:31:58.784Z,4.97
2022-10-01T01:36:16.414Z,6.00
2022-10-01T01:40:31.564Z,6.93
2022-10-01T01:44:46.101Z,7.10
2022-10-01T01:49:00.650Z,5.70
2022-10-01T01:53:12.229Z,6.33
2022-10-01T01:57:23.821Z,7.83
2022-10-01T02:01:42.611Z,5.97
2022-10-01T02:06:22.240Z,4.60
2022-10-01T02:10:36.963Z,4.97
2022-10-01T02:14:59.501Z,4.53
2022-10-01T02:19:41.213Z,3.47
2022-10-01T02:23:59.431Z,4.43
2022-10-01T02:28:16.380Z,5.00
2022-10-01T02:32:31.232Z,4.00
2022-10-01T02:36:45.270Z,3.50
2022-10-01T02:41:00.965Z,3.23
2022-10-01T02:45:15.460Z,3.40
2022-10-01T02:49:30.815Z,3.50
2022-10-01T02:53:49.007Z,2.83
2022-10-01T02:58:00.499Z,3.17
2022-10-01T03:02:12.300Z,2.60
2022-10-01T03:06:23.911Z,2.50
2022-10-01T03:10:35.458Z,2.63
2022-10-01T03:14:47.589Z,2.27
2022-10-01T03:18:59.165Z,2.20
2022-10-01T03:23:10.685Z,1.97
2022-10-01T03:27:22.440Z,2.60
2022-10-01T03:31:34.274Z,1.90
2022-10-01T03:35:46.049Z,2.03
2022-10-01T03:39:57.549Z,1.80
2022-10-01T03:44:09.021Z,2.20
2022-10-01T03:48:21.126Z,1.90
2022-10-01T03:52:32.610Z,1.97
2022-10-01T03:56:44.115Z,2.00
2022-10-01T04:00:55.930Z,2.00
2022-10-01T04:05:08.264Z,2.20
2022-10-01T04:09:20.919Z,3.60
2022-10-01T04:13:33.181Z,2.13
2022-10-01T04:17:46.057Z,1.93
2022-10-01T04:21:57.744Z,1.97
2022-10-01T04:26:09.577Z,1.90
2022-10-01T04:30:21.649Z,2.10
2022-10-01T04:34:51.777Z,2.07
2022-10-01T04:39:03.327Z,1.70
2022-10-01T04:43:14.883Z,1.90
2022-10-01T04:47:26.399Z,1.83
2022-10-01T04:51:37.898Z,2.30
2022-10-01T04:55:49.438Z,1.60
2022-10-01T05:00:01.996Z,2.63
2022-10-01T05:04:13.526Z,2.10
2022-10-01T05:08:25.016Z,2.27
2022-10-01T05:12:36.533Z,2.57
2022-10-01T05:16:48.075Z,2.40
2022-10-01T05:20:59.626Z,3.60
2022-10-01T05:25:11.236Z,2.10
2022-10-01T05:29:23.043Z,2.35
2022-10-01T05:33:34.686Z,2.40
2022-10-01T05:37:46.197Z,2.33
2022-10-01T05:41:59.137Z,2.30
2022-10-01T05:46:12.191Z,3.00
2022-10-01T05:50:25.364Z,2.60
2022-10-01T05:54:37.428Z,3.38
2022-10-01T05:58:48.957Z,3.67
2022-10-01T06:03:02.575Z,3.93
2022-10-01T06:07:14.179Z,4.77
2022-10-01T06:11:26.834Z,4.30
2022-10-01T06:15:38.944Z,6.30
2022-10-01T06:19:51.486Z,4.45
2022-10-01T06:24:03.044Z,6.87
2022-10-01T06:28:14.822Z,4.80
2022-10-01T06:32:26.481Z,5.13
2022-10-01T06:36:37.997Z,5.93
2022-10-01T06:40:57.960Z,6.05
2022-10-01T06:45:09.905Z,6.32
2022-10-01T06:49:22.202Z,5.75
2022-10-01T06:53:34.042Z,6.70
2022-10-01T06:57:46.322Z,7.30
2022-10-01T07:01:57.926Z,7.85
2022-10-01T07:06:11.216Z,8.95
2022-10-01T07:10:23.277Z,9.15
2022-10-01T07:14:35.253Z,9.18
2022-10-01T07:18:46.785Z,9.13
2022-10-01T07:22:59.636Z,11.85
2022-10-01T07:27:11.160Z,11.18
2022-10-01T07:31:24.250Z,13.82
2022-10-01T07:35:38.160Z,11.25
2022-10-01T07:39:49.803Z,14.65
2022-10-01T07:44:03.379Z,10.52
2022-10-01T07:48:15.096Z,10.95
2022-10-01T07:52:26.637Z,11.30
2022-10-01T07:56:38.576Z,13.10
2022-10-01T08:00:52.072Z,12.90
2022-10-01T08:05:18.738Z,12.52
2022-10-01T08:09:30.419Z,12.23
2022-10-01T08:13:42.793Z,13.73
2022-10-01T08:17:54.364Z,15.93
2022-10-01T08:22:07.127Z,11.30
2022-10-01T08:26:18.657Z,15.43
2022-10-01T08:30:30.916Z,13.52
2022-10-01T08:34:42.644Z,13.23
2022-10-01T08:38:54.265Z,10.90
2022-10-01T08:43:07.448Z,11.93
2022-10-01T08:47:31.196Z,12.65
2022-10-01T08:51:58.387Z,9.88
2022-10-01T08:56:21.721Z,6.93
2022-10-01T09:00:36.624Z,11.77
2022-10-01T09:04:51.131Z,9.07
2022-10-01T09:09:23.947Z,4.90
2022-10-01T09:13:57.503Z,7.10
2022-10-01T09:18:37.459Z,4.93
2022-10-01T09:23:28.883Z,6.38
2022-10-01T09:27:40.712Z,5.70
2022-10-01T09:31:53.630Z,4.78
2022-10-01T09:36:16.073Z,5.40
2022-10-01T09:40:35.607Z,6.55
2022-10-01T09:44:47.589Z,6.88
2022-10-01T09:49:28.041Z,7.47
2022-10-01T09:53:46.764Z,4.95
2022-10-01T09:58:09.496Z,4.88
2022-10-01T10:02:31.428Z,5.72
2022-10-01T10:06:43.103Z,6.00
2022-10-01T10:11:01.629Z,7.05
2022-10-01T10:15:17.632Z,2.70
2022-10-01T10:19:30.993Z,4.07
2022-10-01T10:23:50.869Z,3.08
2022-10-01T10:28:02.751Z,4.18
2022-10-01T10:32:41.487Z,2.80
2022-10-01T10:37:07.418Z,4.00
2022-10-01T10:41:26.058Z,7.30
2022-10-01T10:45:39.770Z,3.95
2022-10-01T10:49:53.746Z,5.97
2022-10-01T10:54:18.224Z,7.78
2022-10-01T10:58:33.333Z,5.20
2022-10-01T11:03:06.494Z,3.70
2022-10-01T11:07:23.704Z,5.47
2022-10-01T11:11:55.129Z,5.63
2022-10-01T11:16:18.687Z,5.93
2022-10-01T11:20:41.262Z,10.18
2022-10-01T11:25:23.722Z,4.15
2022-10-01T11:30:03.299Z,5.07
2022-10-01T11:34:25.228Z,5.38
2022-10-01T11:38:56.174Z,6.63
2022-10-01T11:43:32.377Z,4.38
2022-10-01T11:47:54.692Z,5.68
2022-10-01T11:52:26.239Z,7.47
2022-10-01T11:57:04.008Z,2.72
2022-10-01T12:01:25.096Z,2.92
2022-10-01T12:05:38.806Z,6.03
2022-10-01T12:10:17.716Z,6.32
2022-10-01T12:14:40.409Z,7.70
2022-10-01T12:19:07.249Z,6.47
2022-10-01T12:23:34.666Z,3.78
2022-10-01T12:28:28.294Z,5.88
2022-10-01T12:32:53.400Z,5.32
2022-10-01T12:37:26.960Z,2.67
2022-10-01T12:41:57.171Z,4.30
2022-10-01T12:46:27.577Z,4.20
2022-10-01T12:50:39.299Z,6.03
2022-10-01T12:55:13.705Z,5.13
2022-10-01T12:59:41.741Z,2.63
2022-10-01T13:04:03.644Z,9.63
2022-10-01T13:08:18.288Z,5.18
2022-10-01T13:12:59.495Z,3.70
2022-10-01T13:17:24.255Z,7.55
2022-10-01T13:22:11.119Z,7.00
2022-10-01T13:26:36.708Z,2.95
2022-10-01T13:30:59.098Z,6.75
2022-10-01T13:35:39.159Z,4.72
2022-10-01T13:39:50.707Z,4.97
2022-10-01T13:44:08.150Z,4.50
2022-10-01T13:48:21.187Z,3.22
2022-10-01T13:52:34.011Z,6.40
2022-10-01T13:56:45.484Z,5.30
2022-10-01T14:01:00.338Z,4.00
2022-10-01T14:05:17.728Z,3.38
2022-10-01T14:09:33.871Z,4.72
2022-10-01T14:14:09.425Z,5.78
2022-10-01T14:18:23.321Z,7.60
2022-10-01T14:22:59.465Z,4.28
2022-10-01T14:27:29.794Z,5.43
2022-10-01T14:31:50.909Z,4.07
2022-10-01T14:36:15.415Z,4.70
2022-10-01T14:40:36.634Z,4.25
2022-10-01T14:44:48.281Z,5.25
2022-10-01T14:49:00.639Z,4.28
2022-10-01T14:53:18.276Z,6.95
2022-10-01T14:57:33.569Z,6.97
2022-10-01T15:01:54.497Z,4.55
2022-10-01T15:06:18.053Z,3.40
2022-10-01T15:10:29.581Z,8.07
2022-10-01T15:14:42.811Z,6.50
2022-10-01T15:19:00.627Z,4.72
2022-10-01T15:23:12.135Z,4.28
2022-10-01T15:27:24.758Z,4.63
2022-10-01T15:31:36.948Z,4.65
2022-10-01T15:35:48.550Z,3.67
2022-10-01T15:40:01.295Z,6.30
2022-10-01T15:44:42.632Z,5.47
2022-10-01T15:49:17.259Z,5.53
2022-10-01T15:53:29.840Z,5.20
2022-10-01T15:57:42.070Z,8.88
2022-10-01T16:01:53.651Z,2.85
2022-10-01T16:06:08.382Z,4.28
2022-10-01T16:10:40.769Z,6.60
2022-10-01T16:15:03.956Z,4.75
2022-10-01T16:19:31.182Z,7.28
2022-10-01T16:24:27.666Z,7.05
2022-10-01T16:28:39.199Z,7.43
2022-10-01T16:32:50.719Z,6.90
2022-10-01T16:37:02.326Z,10.18
2022-10-01T16:41:24.652Z,7.80
2022-10-01T16:45:42.613Z,7.85
2022-10-01T16:49:54.238Z,11.50
2022-10-01T16:54:07.631Z,8.65
2022-10-01T16:58:20.221Z,7.50
2022-10-01T17:02:31.772Z,10.95
2022-10-01T17:06:43.352Z,5.97
2022-10-01T17:10:59.793Z,6.47
2022-10-01T17:15:17.649Z,8.98
2022-10-01T17:19:29.286Z,7.15
2022-10-01T17:23:40.812Z,5.90
2022-10-01T17:27:52.481Z,10.80
2022-10-01T17:32:04.099Z,5.95
2022-10-01T17:36:15.706Z,4.57
2022-10-01T17:40:27.198Z,3.80
2022-10-01T17:44:38.673Z,6.38
2022-10-01T17:48:50.831Z,7.53
2022-10-01T17:53:02.355Z,6.78
2022-10-01T17:57:13.909Z,7.90
2022-10-01T18:01:25.431Z,6.20
2022-10-01T18:05:37.013Z,5.45
2022-10-01T18:09:48.473Z,5.25
2022-10-01T18:13:59.995Z,7.13
2022-10-01T18:19:51.461Z,6.05
2022-10-01T18:22:42.983Z,7.88
2022-10-01T18:26:54.865Z,6.78
2022-10-01T18:31:18.724Z,5.82
2022-10-01T18:35:33.103Z,7.47
2022-10-01T18:39:49.734Z,4.95
2022-10-01T18:44:01.589Z,7.72
2022-10-01T18:48:31.838Z,6.57
2022-10-01T18:52:50.353Z,7.40
2022-10-01T18:57:33.029Z,7.03
2022-10-01T19:02:02.666Z,9.13
2022-10-01T19:06:26.425Z,8.20
2022-10-01T19:10:54.996Z,8.98
2022-10-01T19:15:16.972Z,5.28
2022-10-01T19:20:06.066Z,8.25
2022-10-01T19:24:35.801Z,9.90
2022-10-01T19:29:12.018Z,12.52
2022-10-01T19:33:24.481Z,13.88
2022-10-01T19:37:39.246Z,10.38
2022-10-01T19:42:06.083Z,6.95
2022-10-01T19:46:26.604Z,7.28
2022-10-01T19:50:43.345Z,8.63
2022-10-01T19:55:00.652Z,7.07
2022-10-01T19:59:14.604Z,6.60
2022-10-01T20:03:48.417Z,6.70
2022-10-01T20:08:06.179Z,11.30
2022-10-01T20:12:28.141Z,9.90
2022-10-01T20:16:47.063Z,12.48
2022-10-01T20:21:37.598Z,10.45
2022-10-01T20:26:10.384Z,10.45
2022-10-01T20:30:23.753Z,14.15
2022-10-01T20:34:35.123Z,19.03
2022-10-01T20:39:03.449Z,14.23
2022-10-01T20:43:21.103Z,12.05
2022-10-01T20:47:49.155Z,12.40
2022-10-01T20:52:13.017Z,16.20
2022-10-01T20:56:33.481Z,5.75
2022-10-01T21:00:47.571Z,6.50
2022-10-01T21:05:07.477Z,10.50
2022-10-01T21:09:31.006Z,8.43
2022-10-01T21:14:26.024Z,7.32
2022-10-01T21:18:57.261Z,6.38
2022-10-01T21:23:11.579Z,10.35
2022-10-01T21:27:54.795Z,9.77
2022-10-01T21:32:36.474Z,8.25
2022-10-01T21:36:58.540Z,8.60
2022-10-01T21:41:27.918Z,7.57
2022-10-01T21:45:59.674Z,7.40
2022-10-01T21:50:20.613Z,11.65
2022-10-01T21:55:05.635Z,10.53
2022-10-01T21:59:49.463Z,13.20
2022-10-01T22:04:12.665Z,10.67
2022-10-01T22:08:46.301Z,7.73
2022-10-01T22:13:02.246Z,12.20
2022-10-01T22:17:22.683Z,16.93
2022-10-01T22:21:39.429Z,9.27
2022-10-01T22:25:57.360Z,9.73
2022-10-01T22:30:17.108Z,9.20
2022-10-01T22:34:37.611Z,11.17
2022-10-01T22:38:55.549Z,7.63
2022-10-01T22:43:11.058Z,11.07
2022-10-01T22:47:43.132Z,10.97
2022-10-01T22:52:28.669Z,10.67
2022-10-01T22:56:59.182Z,7.70
2022-10-01T23:01:41.082Z,11.40
2022-10-01T23:06:04.925Z,11.37
2022-10-01T23:10:24.100Z,11.53
2022-10-01T23:15:05.980Z,18.08
2022-10-01T23:19:28.294Z,14.00
2022-10-01T23:23:42.994Z,14.70
2022-10-01T23:28:10.632Z,14.52
2022-10-01T23:32:34.234Z,15.82
2022-10-01T23:37:02.819Z,15.70
2022-10-01T23:41:18.092Z,16.88
2022-10-01T23:45:44.979Z,12.27
2022-10-01T23:50:00.404Z,9.85
2022-10-01T23:54:27.080Z,14.82
2022-10-01T23:58:55.400Z,11.38
